sensor_id;sensor_type;location;lat;lon;timestamp;P1;durP1;ratioP1;P2;durP2;ratioP2
68872;SDS011;55907;50.806;12.882;2023-05-07T00:01:31;16.7;;;9.9;;
68872;SDS011;55907;50.806;12.882;2023-05-07T00:04:32;14.9;;;9.6;;
68872;SDS011;55907;50.806;12.882;2023-05-07T00:07:34;14.5;;;9.4;;
68872;SDS011;55907;50.806;12.882;2023-05-07T00:10:35;15.7;;;9.7;;
68872;SDS011;55907;50.806;12.882;2023-05-07T00:13:37;15.1;;;9.3;;
68872;SDS011;55907;50.806;12.882;2023-05-07T00:16:38;13.2;;;8.4;;
68872;SDS011;55907;50.806;12.882;2023-05-07T00:19:40;13.0;;;8.5;;
68872;SDS011;55907;50.806;12.882;2023-05-07T00:22:41;13.8;;;8.1;;
68872;SDS011;55907;50.806;12.882;2023-05-07T00:25:43;11.0;;;7.7;;
68872;SDS011;55907;50.806;12.882;2023-05-07T00:28:44;11.8;;;7.6;;
68872;SDS011;55907;50.806;12.882;2023-05-07T00:31:46;12.8;;;7.3;;
68872;SDS011;55907;50.806;12.882;2023-05-07T00:34:47;10.7;;;6.9;;
68872;SDS011;55907;50.806;12.882;2023-05-07T00:37:49;11.7;;;6.8;;
68872;SDS011;55907;50.806;12.882;2023-05-07T00:40:50;10.6;;;6.8;;
68872;SDS011;55907;50.806;12.882;2023-05-07T00:46:53;9.4;;;6.6;;
68872;SDS011;55907;50.806;12.882;2023-05-07T00:49:55;10.0;;;6.3;;
68872;SDS011;55907;50.806;12.882;2023-05-07T00:52:56;10.4;;;6.6;;
68872;SDS011;55907;50.806;12.882;2023-05-07T00:55:58;9.8;;;6.3;;
68872;SDS011;55907;50.806;12.882;2023-05-07T00:59:00;9.0;;;6.0;;
68872;SDS011;55907;50.806;12.882;2023-05-07T01:02:01;9.2;;;6.4;;
68872;SDS011;55907;50.806;12.882;2023-05-07T01:05:02;9.1;;;5.8;;
68872;SDS011;55907;50.806;12.882;2023-05-07T01:11:05;9.3;;;5.8;;
68872;SDS011;55907;50.806;12.882;2023-05-07T01:14:07;8.8;;;5.6;;
68872;SDS011;55907;50.806;12.882;2023-05-07T01:17:08;9.6;;;6.3;;
68872;SDS011;55907;50.806;12.882;2023-05-07T01:20:10;8.6;;;5.6;;
68872;SDS011;55907;50.806;12.882;2023-05-07T01:23:11;9.4;;;5.9;;
68872;SDS011;55907;50.806;12.882;2023-05-07T01:26:13;8.8;;;6.1;;
68872;SDS011;55907;50.806;12.882;2023-05-07T01:29:14;8.4;;;5.9;;
68872;SDS011;55907;50.806;12.882;2023-05-07T01:32:16;9.5;;;6.3;;
68872;SDS011;55907;50.806;12.882;2023-05-07T01:35:18;10.8;;;6.6;;
68872;SDS011;55907;50.806;12.882;2023-05-07T01:38:19;8.9;;;6.1;;
68872;SDS011;55907;50.806;12.882;2023-05-07T01:41:20;10.9;;;6.9;;
68872;SDS011;55907;50.806;12.882;2023-05-07T01:44:22;11.2;;;7.3;;
68872;SDS011;55907;50.806;12.882;2023-05-07T01:47:24;11.6;;;7.2;;
68872;SDS011;55907;50.806;12.882;2023-05-07T01:50:25;10.4;;;7.1;;
68872;SDS011;55907;50.806;12.882;2023-05-07T01:53:27;12.6;;;8.1;;
68872;SDS011;55907;50.806;12.882;2023-05-07T01:59:30;13.3;;;8.1;;
68872;SDS011;55907;50.806;12.882;2023-05-07T02:02:31;14.0;;;8.5;;
68872;SDS011;55907;50.806;12.882;2023-05-07T02:05:33;13.1;;;8.2;;
68872;SDS011;55907;50.806;12.882;2023-05-07T02:08:34;14.1;;;8.3;;
68872;SDS011;55907;50.806;12.882;2023-05-07T02:14:37;13.3;;;8.5;;
68872;SDS011;55907;50.806;12.882;2023-05-07T02:20:40;14.1;;;9.5;;
68872;SDS011;55907;50.806;12.882;2023-05-07T02:23:42;12.5;;;9.3;;
68872;SDS011;55907;50.806;12.882;2023-05-07T02:26:43;15.1;;;9.8;;
68872;SDS011;55907;50.806;12.882;2023-05-07T02:29:45;14.5;;;10.2;;
68872;SDS011;55907;50.806;12.882;2023-05-07T02:32:46;16.1;;;10.4;;
68872;SDS011;55907;50.806;12.882;2023-05-07T02:35:48;14.9;;;10.4;;
68872;SDS011;55907;50.806;12.882;2023-05-07T02:41:51;15.7;;;10.5;;
68872;SDS011;55907;50.806;12.882;2023-05-07T02:44:52;18.8;;;11.9;;
68872;SDS011;55907;50.806;12.882;2023-05-07T02:47:54;16.9;;;11.3;;
68872;SDS011;55907;50.806;12.882;2023-05-07T02:50:55;17.0;;;11.3;;
68872;SDS011;55907;50.806;12.882;2023-05-07T02:53:57;17.2;;;11.5;;
68872;SDS011;55907;50.806;12.882;2023-05-07T02:56:58;15.3;;;10.6;;
68872;SDS011;55907;50.806;12.882;2023-05-07T03:00:06;17.2;;;11.1;;
68872;SDS011;55907;50.806;12.882;2023-05-07T03:03:02;17.3;;;11.4;;
68872;SDS011;55907;50.806;12.882;2023-05-07T03:06:03;15.9;;;11.4;;
68872;SDS011;55907;50.806;12.882;2023-05-07T03:09:05;17.9;;;12.0;;
68872;SDS011;55907;50.806;12.882;2023-05-07T03:12:06;17.1;;;11.6;;
68872;SDS011;55907;50.806;12.882;2023-05-07T03:15:08;16.7;;;11.6;;
68872;SDS011;55907;50.806;12.882;2023-05-07T03:18:09;18.4;;;12.9;;
68872;SDS011;55907;50.806;12.882;2023-05-07T03:21:11;19.0;;;12.7;;
68872;SDS011;55907;50.806;12.882;2023-05-07T03:24:12;17.8;;;12.1;;
68872;SDS011;55907;50.806;12.882;2023-05-07T03:27:14;18.3;;;12.3;;
68872;SDS011;55907;50.806;12.882;2023-05-07T03:30:15;19.9;;;13.0;;
68872;SDS011;55907;50.806;12.882;2023-05-07T03:33:17;19.4;;;13.2;;
68872;SDS011;55907;50.806;12.882;2023-05-07T03:36:18;19.1;;;13.2;;
68872;SDS011;55907;50.806;12.882;2023-05-07T03:39:20;19.3;;;14.0;;
68872;SDS011;55907;50.806;12.882;2023-05-07T03:42:21;19.7;;;13.1;;
68872;SDS011;55907;50.806;12.882;2023-05-07T03:45:23;20.0;;;13.6;;
68872;SDS011;55907;50.806;12.882;2023-05-07T03:48:25;21.6;;;14.1;;
68872;SDS011;55907;50.806;12.882;2023-05-07T03:51:26;20.4;;;13.9;;
68872;SDS011;55907;50.806;12.882;2023-05-07T03:57:29;20.5;;;14.0;;
68872;SDS011;55907;50.806;12.882;2023-05-07T04:00:31;20.7;;;13.8;;
68872;SDS011;55907;50.806;12.882;2023-05-07T04:03:32;21.0;;;14.0;;
68872;SDS011;55907;50.806;12.882;2023-05-07T04:06:34;20.2;;;13.5;;
68872;SDS011;55907;50.806;12.882;2023-05-07T04:09:35;19.9;;;13.3;;
68872;SDS011;55907;50.806;12.882;2023-05-07T04:12:37;20.4;;;13.1;;
68872;SDS011;55907;50.806;12.882;2023-05-07T04:15:38;19.7;;;13.1;;
68872;SDS011;55907;50.806;12.882;2023-05-07T04:18:40;20.6;;;12.9;;
68872;SDS011;55907;50.806;12.882;2023-05-07T04:21:41;19.6;;;12.6;;
68872;SDS011;55907;50.806;12.882;2023-05-07T04:24:43;18.5;;;12.2;;
68872;SDS011;55907;50.806;12.882;2023-05-07T04:27:44;18.7;;;12.0;;
68872;SDS011;55907;50.806;12.882;2023-05-07T04:30:46;18.6;;;12.4;;
68872;SDS011;55907;50.806;12.882;2023-05-07T04:33:48;19.9;;;12.6;;
68872;SDS011;55907;50.806;12.882;2023-05-07T04:36:49;19.1;;;12.0;;
68872;SDS011;55907;50.806;12.882;2023-05-07T04:39:51;17.6;;;11.8;;
68872;SDS011;55907;50.806;12.882;2023-05-07T04:42:52;18.0;;;11.5;;
68872;SDS011;55907;50.806;12.882;2023-05-07T04:45:54;16.1;;;11.2;;
68872;SDS011;55907;50.806;12.882;2023-05-07T04:48:55;15.9;;;10.4;;
68872;SDS011;55907;50.806;12.882;2023-05-07T04:51:57;17.7;;;11.1;;
68872;SDS011;55907;50.806;12.882;2023-05-07T04:54:58;16.1;;;10.5;;
68872;SDS011;55907;50.806;12.882;2023-05-07T04:58:00;15.4;;;10.2;;
68872;SDS011;55907;50.806;12.882;2023-05-07T05:01:01;14.3;;;9.6;;
68872;SDS011;55907;50.806;12.882;2023-05-07T05:04:03;13.7;;;9.3;;
68872;SDS011;55907;50.806;12.882;2023-05-07T05:07:04;15.0;;;8.8;;
68872;SDS011;55907;50.806;12.882;2023-05-07T05:10:06;13.8;;;9.2;;
68872;SDS011;55907;50.806;12.882;2023-05-07T05:13:07;14.1;;;9.0;;
68872;SDS011;55907;50.806;12.882;2023-05-07T05:16:09;14.7;;;9.5;;
68872;SDS011;55907;50.806;12.882;2023-05-07T05:19:11;11.9;;;8.7;;
68872;SDS011;55907;50.806;12.882;2023-05-07T05:22:12;12.6;;;8.8;;
68872;SDS011;55907;50.806;12.882;2023-05-07T05:28:15;13.4;;;8.8;;
68872;SDS011;55907;50.806;12.882;2023-05-07T05:31:17;12.4;;;9.2;;
68872;SDS011;55907;50.806;12.882;2023-05-07T05:34:18;12.9;;;8.9;;
68872;SDS011;55907;50.806;12.882;2023-05-07T05:37:20;13.4;;;9.5;;
68872;SDS011;55907;50.806;12.882;2023-05-07T05:40:21;12.9;;;9.1;;
68872;SDS011;55907;50.806;12.882;2023-05-07T05:43:23;13.1;;;9.3;;
68872;SDS011;55907;50.806;12.882;2023-05-07T05:46:24;13.2;;;9.4;;
68872;SDS011;55907;50.806;12.882;2023-05-07T05:49:26;14.7;;;10.7;;
68872;SDS011;55907;50.806;12.882;2023-05-07T05:52:28;13.1;;;9.9;;
68872;SDS011;55907;50.806;12.882;2023-05-07T05:55:29;13.0;;;9.2;;
68872;SDS011;55907;50.806;12.882;2023-05-07T05:58:31;15.2;;;10.4;;
68872;SDS011;55907;50.806;12.882;2023-05-07T06:01:32;13.1;;;9.4;;
68872;SDS011;55907;50.806;12.882;2023-05-07T06:04:34;13.2;;;9.2;;
68872;SDS011;55907;50.806;12.882;2023-05-07T06:07:35;23.8;;;15.5;;
68872;SDS011;55907;50.806;12.882;2023-05-07T06:10:37;17.4;;;10.7;;
68872;SDS011;55907;50.806;12.882;2023-05-07T06:13:38;14.6;;;10.2;;
68872;SDS011;55907;50.806;12.882;2023-05-07T06:16:40;14.0;;;9.7;;
68872;SDS011;55907;50.806;12.882;2023-05-07T06:19:41;16.2;;;11.0;;
68872;SDS011;55907;50.806;12.882;2023-05-07T06:22:43;14.3;;;9.8;;
68872;SDS011;55907;50.806;12.882;2023-05-07T06:28:46;15.1;;;10.5;;
68872;SDS011;55907;50.806;12.882;2023-05-07T06:31:48;15.0;;;9.7;;
68872;SDS011;55907;50.806;12.882;2023-05-07T06:34:49;13.3;;;9.3;;
68872;SDS011;55907;50.806;12.882;2023-05-07T06:37:51;13.2;;;9.2;;
68872;SDS011;55907;50.806;12.882;2023-05-07T06:40:52;12.8;;;8.7;;
68872;SDS011;55907;50.806;12.882;2023-05-07T06:43:54;12.3;;;8.5;;
68872;SDS011;55907;50.806;12.882;2023-05-07T06:46:55;12.7;;;8.7;;
68872;SDS011;55907;50.806;12.882;2023-05-07T06:49:57;12.6;;;8.6;;
68872;SDS011;55907;50.806;12.882;2023-05-07T06:53:00;11.5;;;8.0;;
68872;SDS011;55907;50.806;12.882;2023-05-07T06:56:00;10.7;;;7.8;;
68872;SDS011;55907;50.806;12.882;2023-05-07T06:59:02;10.1;;;7.3;;
68872;SDS011;55907;50.806;12.882;2023-05-07T07:02:03;10.6;;;7.5;;
68872;SDS011;55907;50.806;12.882;2023-05-07T07:05:05;19.1;;;11.9;;
68872;SDS011;55907;50.806;12.882;2023-05-07T07:08:06;12.9;;;9.0;;
68872;SDS011;55907;50.806;12.882;2023-05-07T07:11:08;11.9;;;8.3;;
68872;SDS011;55907;50.806;12.882;2023-05-07T07:14:09;13.1;;;8.2;;
68872;SDS011;55907;50.806;12.882;2023-05-07T07:17:10;12.2;;;8.7;;
68872;SDS011;55907;50.806;12.882;2023-05-07T07:20:12;11.3;;;8.7;;
68872;SDS011;55907;50.806;12.882;2023-05-07T07:23:14;11.1;;;8.5;;
68872;SDS011;55907;50.806;12.882;2023-05-07T07:26:15;11.4;;;8.5;;
68872;SDS011;55907;50.806;12.882;2023-05-07T07:29:17;13.0;;;8.8;;
68872;SDS011;55907;50.806;12.882;2023-05-07T07:32:18;19.9;;;13.9;;
68872;SDS011;55907;50.806;12.882;2023-05-07T07:35:20;12.0;;;8.2;;
68872;SDS011;55907;50.806;12.882;2023-05-07T07:38:21;12.1;;;8.0;;
68872;SDS011;55907;50.806;12.882;2023-05-07T07:41:23;10.3;;;7.4;;
68872;SDS011;55907;50.806;12.882;2023-05-07T07:44:24;9.7;;;7.2;;
68872;SDS011;55907;50.806;12.882;2023-05-07T07:50:27;10.2;;;7.2;;
68872;SDS011;55907;50.806;12.882;2023-05-07T07:53:29;8.6;;;6.4;;
68872;SDS011;55907;50.806;12.882;2023-05-07T07:56:31;9.9;;;6.6;;
68872;SDS011;55907;50.806;12.882;2023-05-07T07:59:32;9.1;;;6.5;;
68872;SDS011;55907;50.806;12.882;2023-05-07T08:02:33;10.0;;;6.2;;
68872;SDS011;55907;50.806;12.882;2023-05-07T08:05:35;8.9;;;7.0;;
68872;SDS011;55907;50.806;12.882;2023-05-07T08:08:36;9.3;;;6.6;;
68872;SDS011;55907;50.806;12.882;2023-05-07T08:11:38;8.5;;;6.2;;
68872;SDS011;55907;50.806;12.882;2023-05-07T08:14:39;9.4;;;6.3;;
68872;SDS011;55907;50.806;12.882;2023-05-07T08:17:41;8.9;;;6.2;;
68872;SDS011;55907;50.806;12.882;2023-05-07T08:20:42;7.6;;;5.4;;
68872;SDS011;55907;50.806;12.882;2023-05-07T08:23:44;7.5;;;5.3;;
68872;SDS011;55907;50.806;12.882;2023-05-07T08:26:45;6.6;;;5.0;;
68872;SDS011;55907;50.806;12.882;2023-05-07T08:29:47;7.0;;;5.4;;
68872;SDS011;55907;50.806;12.882;2023-05-07T08:32:48;7.1;;;5.1;;
68872;SDS011;55907;50.806;12.882;2023-05-07T08:35:50;6.7;;;5.2;;
68872;SDS011;55907;50.806;12.882;2023-05-07T08:38:51;6.8;;;4.8;;
68872;SDS011;55907;50.806;12.882;2023-05-07T08:41:54;6.3;;;4.7;;
68872;SDS011;55907;50.806;12.882;2023-05-07T08:44:54;6.4;;;4.8;;
68872;SDS011;55907;50.806;12.882;2023-05-07T08:47:58;6.1;;;4.4;;
68872;SDS011;55907;50.806;12.882;2023-05-07T08:50:57;6.6;;;4.7;;
68872;SDS011;55907;50.806;12.882;2023-05-07T08:53:59;26.7;;;19.4;;
68872;SDS011;55907;50.806;12.882;2023-05-07T08:57:00;10.8;;;7.5;;
68872;SDS011;55907;50.806;12.882;2023-05-07T09:00:02;5.8;;;4.4;;
68872;SDS011;55907;50.806;12.882;2023-05-07T09:03:03;4.8;;;3.7;;
68872;SDS011;55907;50.806;12.882;2023-05-07T09:09:06;4.5;;;3.2;;
68872;SDS011;55907;50.806;12.882;2023-05-07T09:12:07;4.1;;;3.5;;
68872;SDS011;55907;50.806;12.882;2023-05-07T09:15:09;4.5;;;3.4;;
68872;SDS011;55907;50.806;12.882;2023-05-07T09:18:11;4.7;;;3.5;;
68872;SDS011;55907;50.806;12.882;2023-05-07T09:21:14;6.2;;;3.5;;
68872;SDS011;55907;50.806;12.882;2023-05-07T09:24:14;4.3;;;3.3;;
68872;SDS011;55907;50.806;12.882;2023-05-07T09:27:17;3.8;;;3.2;;
68872;SDS011;55907;50.806;12.882;2023-05-07T09:30:16;4.7;;;3.5;;
68872;SDS011;55907;50.806;12.882;2023-05-07T09:33:18;6.6;;;4.4;;
68872;SDS011;55907;50.806;12.882;2023-05-07T09:36:21;4.1;;;3.6;;
68872;SDS011;55907;50.806;12.882;2023-05-07T09:39:21;3.8;;;3.1;;
68872;SDS011;55907;50.806;12.882;2023-05-07T09:42:23;4.5;;;3.4;;
68872;SDS011;55907;50.806;12.882;2023-05-07T09:48:25;4.1;;;3.6;;
68872;SDS011;55907;50.806;12.882;2023-05-07T09:51:28;4.9;;;3.9;;
68872;SDS011;55907;50.806;12.882;2023-05-07T09:54:28;4.8;;;3.8;;
68872;SDS011;55907;50.806;12.882;2023-05-07T09:57:29;4.7;;;3.4;;
68872;SDS011;55907;50.806;12.882;2023-05-07T10:00:31;4.1;;;3.4;;
68872;SDS011;55907;50.806;12.882;2023-05-07T10:03:34;5.0;;;3.8;;
68872;SDS011;55907;50.806;12.882;2023-05-07T10:06:34;4.0;;;3.6;;
68872;SDS011;55907;50.806;12.882;2023-05-07T10:12:37;3.9;;;3.4;;
68872;SDS011;55907;50.806;12.882;2023-05-07T10:15:38;4.4;;;3.1;;
68872;SDS011;55907;50.806;12.882;2023-05-07T10:21:43;9.4;;;7.0;;
68872;SDS011;55907;50.806;12.882;2023-05-07T10:24:42;4.2;;;3.6;;
68872;SDS011;55907;50.806;12.882;2023-05-07T10:27:44;4.8;;;4.2;;
68872;SDS011;55907;50.806;12.882;2023-05-07T10:30:48;6.1;;;4.4;;
68872;SDS011;55907;50.806;12.882;2023-05-07T10:33:47;4.3;;;3.3;;
68872;SDS011;55907;50.806;12.882;2023-05-07T10:36:48;4.0;;;3.2;;
68872;SDS011;55907;50.806;12.882;2023-05-07T10:42:53;3.2;;;2.9;;
68872;SDS011;55907;50.806;12.882;2023-05-07T10:58:02;2.9;;;2.4;;
68872;SDS011;55907;50.806;12.882;2023-05-07T11:01:00;3.3;;;2.8;;
68872;SDS011;55907;50.806;12.882;2023-05-07T11:10:04;3.4;;;3.1;;
68872;SDS011;55907;50.806;12.882;2023-05-07T11:13:05;3.2;;;2.8;;
68872;SDS011;55907;50.806;12.882;2023-05-07T11:16:15;3.3;;;3.0;;
68872;SDS011;55907;50.806;12.882;2023-05-07T11:19:08;8.0;;;5.4;;
68872;SDS011;55907;50.806;12.882;2023-05-07T11:25:11;3.5;;;3.1;;
68872;SDS011;55907;50.806;12.882;2023-05-07T11:28:13;3.7;;;2.8;;
68872;SDS011;55907;50.806;12.882;2023-05-07T11:31:14;3.3;;;3.0;;
68872;SDS011;55907;50.806;12.882;2023-05-07T11:34:16;3.9;;;3.2;;
68872;SDS011;55907;50.806;12.882;2023-05-07T11:37:17;3.1;;;2.8;;
68872;SDS011;55907;50.806;12.882;2023-05-07T11:40:18;3.3;;;2.8;;
68872;SDS011;55907;50.806;12.882;2023-05-07T11:43:20;3.1;;;2.8;;
68872;SDS011;55907;50.806;12.882;2023-05-07T11:46:21;5.3;;;3.2;;
68872;SDS011;55907;50.806;12.882;2023-05-07T11:49:25;3.7;;;3.1;;
68872;SDS011;55907;50.806;12.882;2023-05-07T11:55:25;3.4;;;2.9;;
68872;SDS011;55907;50.806;12.882;2023-05-07T12:01:28;4.0;;;3.4;;
68872;SDS011;55907;50.806;12.882;2023-05-07T12:04:30;3.8;;;3.1;;
68872;SDS011;55907;50.806;12.882;2023-05-07T12:07:32;3.6;;;3.1;;
68872;SDS011;55907;50.806;12.882;2023-05-07T12:10:33;3.7;;;3.3;;
68872;SDS011;55907;50.806;12.882;2023-05-07T12:13:34;3.8;;;3.0;;
68872;SDS011;55907;50.806;12.882;2023-05-07T12:16:36;4.4;;;2.8;;
68872;SDS011;55907;50.806;12.882;2023-05-07T12:19:38;2.9;;;2.6;;
68872;SDS011;55907;50.806;12.882;2023-05-07T12:22:39;3.3;;;3.0;;
68872;SDS011;55907;50.806;12.882;2023-05-07T12:25:41;3.0;;;2.7;;
68872;SDS011;55907;50.806;12.882;2023-05-07T12:28:41;3.2;;;2.7;;
68872;SDS011;55907;50.806;12.882;2023-05-07T12:31:43;3.5;;;2.6;;
68872;SDS011;55907;50.806;12.882;2023-05-07T12:34:45;3.4;;;2.9;;
68872;SDS011;55907;50.806;12.882;2023-05-07T12:37:54;6.8;;;5.9;;
68872;SDS011;55907;50.806;12.882;2023-05-07T12:40:48;4.9;;;3.0;;
68872;SDS011;55907;50.806;12.882;2023-05-07T12:43:49;6.7;;;3.1;;
68872;SDS011;55907;50.806;12.882;2023-05-07T12:46:50;4.0;;;2.8;;
68872;SDS011;55907;50.806;12.882;2023-05-07T12:49:52;3.1;;;2.8;;
68872;SDS011;55907;50.806;12.882;2023-05-07T12:52:53;3.3;;;3.0;;
68872;SDS011;55907;50.806;12.882;2023-05-07T12:55:55;3.0;;;2.7;;
68872;SDS011;55907;50.806;12.882;2023-05-07T13:01:57;3.8;;;3.2;;
68872;SDS011;55907;50.806;12.882;2023-05-07T13:04:59;3.6;;;3.3;;
68872;SDS011;55907;50.806;12.882;2023-05-07T13:08:00;4.1;;;3.2;;
68872;SDS011;55907;50.806;12.882;2023-05-07T13:11:02;4.2;;;3.1;;
68872;SDS011;55907;50.806;12.882;2023-05-07T13:14:03;3.3;;;3.0;;
68872;SDS011;55907;50.806;12.882;2023-05-07T13:17:05;3.6;;;3.3;;
68872;SDS011;55907;50.806;12.882;2023-05-07T13:20:06;4.1;;;3.7;;
68872;SDS011;55907;50.806;12.882;2023-05-07T13:23:07;4.0;;;3.6;;
68872;SDS011;55907;50.806;12.882;2023-05-07T13:26:09;3.7;;;3.4;;
68872;SDS011;55907;50.806;12.882;2023-05-07T13:29:10;3.5;;;3.0;;
68872;SDS011;55907;50.806;12.882;2023-05-07T13:35:13;3.4;;;3.1;;
68872;SDS011;55907;50.806;12.882;2023-05-07T13:38:15;4.0;;;3.4;;
68872;SDS011;55907;50.806;12.882;2023-05-07T13:41:16;3.4;;;2.9;;
68872;SDS011;55907;50.806;12.882;2023-05-07T13:44:18;3.8;;;3.2;;
68872;SDS011;55907;50.806;12.882;2023-05-07T13:47:19;4.1;;;3.0;;
68872;SDS011;55907;50.806;12.882;2023-05-07T13:50:21;4.5;;;3.0;;
68872;SDS011;55907;50.806;12.882;2023-05-07T13:56:23;3.4;;;2.8;;
68872;SDS011;55907;50.806;12.882;2023-05-07T13:59:25;3.3;;;3.0;;
68872;SDS011;55907;50.806;12.882;2023-05-07T14:02:26;3.2;;;2.9;;
68872;SDS011;55907;50.806;12.882;2023-05-07T14:05:28;2.7;;;2.5;;
68872;SDS011;55907;50.806;12.882;2023-05-07T14:08:29;4.3;;;2.8;;
68872;SDS011;55907;50.806;12.882;2023-05-07T14:14:32;3.8;;;2.9;;
68872;SDS011;55907;50.806;12.882;2023-05-07T14:17:34;3.4;;;3.0;;
68872;SDS011;55907;50.806;12.882;2023-05-07T14:20:35;3.5;;;3.2;;
68872;SDS011;55907;50.806;12.882;2023-05-07T14:23:37;3.2;;;2.9;;
68872;SDS011;55907;50.806;12.882;2023-05-07T14:26:38;3.3;;;3.0;;
68872;SDS011;55907;50.806;12.882;2023-05-07T14:29:39;3.6;;;3.2;;
68872;SDS011;55907;50.806;12.882;2023-05-07T14:32:41;3.3;;;3.0;;
68872;SDS011;55907;50.806;12.882;2023-05-07T14:35:42;3.0;;;2.7;;
68872;SDS011;55907;50.806;12.882;2023-05-07T14:38:44;3.3;;;3.0;;
68872;SDS011;55907;50.806;12.882;2023-05-07T14:41:45;3.2;;;2.9;;
68872;SDS011;55907;50.806;12.882;2023-05-07T14:44:47;3.4;;;3.1;;
68872;SDS011;55907;50.806;12.882;2023-05-07T14:47:48;3.3;;;3.0;;
68872;SDS011;55907;50.806;12.882;2023-05-07T14:50:50;4.2;;;3.5;;
68872;SDS011;55907;50.806;12.882;2023-05-07T14:53:51;3.9;;;3.2;;
68872;SDS011;55907;50.806;12.882;2023-05-07T14:56:53;3.8;;;3.4;;
68872;SDS011;55907;50.806;12.882;2023-05-07T14:59:54;3.5;;;3.2;;
68872;SDS011;55907;50.806;12.882;2023-05-07T15:02:55;3.6;;;3.3;;
68872;SDS011;55907;50.806;12.882;2023-05-07T15:05:57;4.1;;;3.6;;
68872;SDS011;55907;50.806;12.882;2023-05-07T15:08:58;3.6;;;3.3;;
68872;SDS011;55907;50.806;12.882;2023-05-07T15:15:01;3.9;;;3.5;;
68872;SDS011;55907;50.806;12.882;2023-05-07T15:18:03;3.8;;;3.2;;
68872;SDS011;55907;50.806;12.882;2023-05-07T15:21:04;4.3;;;3.5;;
68872;SDS011;55907;50.806;12.882;2023-05-07T15:24:06;3.9;;;3.4;;
68872;SDS011;55907;50.806;12.882;2023-05-07T15:27:07;3.6;;;3.3;;
68872;SDS011;55907;50.806;12.882;2023-05-07T15:30:09;5.0;;;3.2;;
68872;SDS011;55907;50.806;12.882;2023-05-07T15:33:10;5.1;;;3.6;;
68872;SDS011;55907;50.806;12.882;2023-05-07T15:36:11;4.0;;;3.6;;
68872;SDS011;55907;50.806;12.882;2023-05-07T15:39:13;5.7;;;3.8;;
68872;SDS011;55907;50.806;12.882;2023-05-07T15:42:14;4.8;;;3.9;;
68872;SDS011;55907;50.806;12.882;2023-05-07T15:45:16;3.9;;;3.5;;
68872;SDS011;55907;50.806;12.882;2023-05-07T15:48:17;5.1;;;4.0;;
68872;SDS011;55907;50.806;12.882;2023-05-07T15:51:19;6.1;;;4.9;;
68872;SDS011;55907;50.806;12.882;2023-05-07T15:54:20;5.6;;;4.3;;
68872;SDS011;55907;50.806;12.882;2023-05-07T15:57:22;4.7;;;4.0;;
68872;SDS011;55907;50.806;12.882;2023-05-07T16:00:25;4.9;;;3.8;;
68872;SDS011;55907;50.806;12.882;2023-05-07T16:03:26;5.2;;;4.3;;
68872;SDS011;55907;50.806;12.882;2023-05-07T16:06:26;4.4;;;4.0;;
68872;SDS011;55907;50.806;12.882;2023-05-07T16:09:27;4.8;;;4.1;;
68872;SDS011;55907;50.806;12.882;2023-05-07T16:12:29;4.6;;;4.1;;
68872;SDS011;55907;50.806;12.882;2023-05-07T16:15:30;5.3;;;4.4;;
68872;SDS011;55907;50.806;12.882;2023-05-07T16:18:32;6.0;;;4.2;;
68872;SDS011;55907;50.806;12.882;2023-05-07T16:21:33;4.6;;;4.1;;
68872;SDS011;55907;50.806;12.882;2023-05-07T16:24:35;5.5;;;4.3;;
68872;SDS011;55907;50.806;12.882;2023-05-07T16:27:36;6.4;;;4.5;;
68872;SDS011;55907;50.806;12.882;2023-05-07T16:30:37;4.9;;;4.4;;
68872;SDS011;55907;50.806;12.882;2023-05-07T16:33:39;7.4;;;5.8;;
68872;SDS011;55907;50.806;12.882;2023-05-07T16:36:40;11.2;;;8.2;;
68872;SDS011;55907;50.806;12.882;2023-05-07T16:39:42;5.0;;;4.1;;
68872;SDS011;55907;50.806;12.882;2023-05-07T16:42:43;4.8;;;4.3;;
68872;SDS011;55907;50.806;12.882;2023-05-07T16:45:45;6.0;;;4.3;;
68872;SDS011;55907;50.806;12.882;2023-05-07T16:48:46;5.5;;;4.1;;
68872;SDS011;55907;50.806;12.882;2023-05-07T16:51:48;5.4;;;4.2;;
68872;SDS011;55907;50.806;12.882;2023-05-07T16:54:49;4.9;;;4.3;;
68872;SDS011;55907;50.806;12.882;2023-05-07T16:57:51;5.5;;;4.4;;
68872;SDS011;55907;50.806;12.882;2023-05-07T17:00:52;6.3;;;4.4;;
68872;SDS011;55907;50.806;12.882;2023-05-07T17:03:55;4.7;;;4.2;;
68872;SDS011;55907;50.806;12.882;2023-05-07T17:06:55;4.5;;;4.1;;
68872;SDS011;55907;50.806;12.882;2023-05-07T17:09:57;4.9;;;3.9;;
68872;SDS011;55907;50.806;12.882;2023-05-07T17:12:58;5.5;;;4.3;;
68872;SDS011;55907;50.806;12.882;2023-05-07T17:15:59;6.1;;;4.5;;
68872;SDS011;55907;50.806;12.882;2023-05-07T17:19:01;4.4;;;4.0;;
68872;SDS011;55907;50.806;12.882;2023-05-07T17:22:02;5.2;;;4.1;;
68872;SDS011;55907;50.806;12.882;2023-05-07T17:28:05;4.4;;;3.9;;
68872;SDS011;55907;50.806;12.882;2023-05-07T17:31:07;4.9;;;4.0;;
68872;SDS011;55907;50.806;12.882;2023-05-07T17:34:08;5.1;;;4.3;;
68872;SDS011;55907;50.806;12.882;2023-05-07T17:37:10;4.8;;;4.0;;
68872;SDS011;55907;50.806;12.882;2023-05-07T17:40:11;6.1;;;4.0;;
68872;SDS011;55907;50.806;12.882;2023-05-07T17:43:13;5.2;;;4.0;;
68872;SDS011;55907;50.806;12.882;2023-05-07T17:46:14;5.8;;;4.5;;
68872;SDS011;55907;50.806;12.882;2023-05-07T17:49:16;4.0;;;3.5;;
68872;SDS011;55907;50.806;12.882;2023-05-07T17:52:17;4.3;;;3.9;;
68872;SDS011;55907;50.806;12.882;2023-05-07T17:55:19;4.8;;;3.7;;
68872;SDS011;55907;50.806;12.882;2023-05-07T17:58:20;4.5;;;3.5;;
68872;SDS011;55907;50.806;12.882;2023-05-07T18:01:22;13.7;;;3.8;;
68872;SDS011;55907;50.806;12.882;2023-05-07T18:04:23;4.0;;;3.6;;
68872;SDS011;55907;50.806;12.882;2023-05-07T18:07:25;5.2;;;4.0;;
68872;SDS011;55907;50.806;12.882;2023-05-07T18:10:26;4.4;;;3.9;;
68872;SDS011;55907;50.806;12.882;2023-05-07T18:13:28;5.1;;;3.6;;
68872;SDS011;55907;50.806;12.882;2023-05-07T18:16:29;6.1;;;4.0;;
68872;SDS011;55907;50.806;12.882;2023-05-07T18:19:31;5.3;;;4.1;;
68872;SDS011;55907;50.806;12.882;2023-05-07T18:22:32;4.6;;;3.8;;
68872;SDS011;55907;50.806;12.882;2023-05-07T18:28:35;5.4;;;4.3;;
68872;SDS011;55907;50.806;12.882;2023-05-07T18:31:37;4.7;;;3.8;;
68872;SDS011;55907;50.806;12.882;2023-05-07T18:34:38;4.6;;;4.1;;
68872;SDS011;55907;50.806;12.882;2023-05-07T18:37:40;4.9;;;4.1;;
68872;SDS011;55907;50.806;12.882;2023-05-07T18:40:41;4.7;;;4.0;;
68872;SDS011;55907;50.806;12.882;2023-05-07T18:43:43;6.7;;;4.1;;
68872;SDS011;55907;50.806;12.882;2023-05-07T18:46:44;4.9;;;4.1;;
68872;SDS011;55907;50.806;12.882;2023-05-07T18:49:46;6.9;;;4.1;;
68872;SDS011;55907;50.806;12.882;2023-05-07T18:52:47;6.5;;;4.1;;
68872;SDS011;55907;50.806;12.882;2023-05-07T18:55:49;5.2;;;4.3;;
68872;SDS011;55907;50.806;12.882;2023-05-07T18:58:50;6.9;;;5.0;;
68872;SDS011;55907;50.806;12.882;2023-05-07T19:01:52;6.1;;;4.6;;
68872;SDS011;55907;50.806;12.882;2023-05-07T19:07:55;6.7;;;4.5;;
68872;SDS011;55907;50.806;12.882;2023-05-07T19:10:56;5.2;;;4.4;;
68872;SDS011;55907;50.806;12.882;2023-05-07T19:13:58;6.0;;;4.3;;
68872;SDS011;55907;50.806;12.882;2023-05-07T19:16:59;6.2;;;4.5;;
68872;SDS011;55907;50.806;12.882;2023-05-07T19:20:01;6.5;;;4.7;;
68872;SDS011;55907;50.806;12.882;2023-05-07T19:23:02;7.1;;;4.4;;
68872;SDS011;55907;50.806;12.882;2023-05-07T19:26:04;6.4;;;4.4;;
68872;SDS011;55907;50.806;12.882;2023-05-07T19:32:07;7.3;;;4.8;;
68872;SDS011;55907;50.806;12.882;2023-05-07T19:35:08;5.3;;;4.6;;
68872;SDS011;55907;50.806;12.882;2023-05-07T19:38:10;6.1;;;4.5;;
68872;SDS011;55907;50.806;12.882;2023-05-07T19:41:12;5.7;;;4.8;;
68872;SDS011;55907;50.806;12.882;2023-05-07T19:44:13;7.8;;;5.3;;
68872;SDS011;55907;50.806;12.882;2023-05-07T19:47:15;5.4;;;4.5;;
68872;SDS011;55907;50.806;12.882;2023-05-07T19:50:16;7.4;;;4.9;;
68872;SDS011;55907;50.806;12.882;2023-05-07T19:53:18;6.3;;;4.9;;
68872;SDS011;55907;50.806;12.882;2023-05-07T19:56:19;7.3;;;5.5;;
68872;SDS011;55907;50.806;12.882;2023-05-07T19:59:21;6.7;;;5.1;;